Date,TemperatureHighF,TemperatureAvgF,TemperatureLowF,DewpointHighF,DewpointAvgF,DewpointLowF,HumidityHigh,HumidityAvg,HumidityLow,PressureMaxIn,PressureMinIn,WindSpeedMaxMPH,WindSpeedAvgMPH,GustSpeedMaxMPH,PrecipitationSumIn
2013-8-1,76.9,70.5,65.9,68.5,66.1,63.2,97,87,67,30.05,29.89,12,6,37,0.06
2013-8-2,77.3,70.2,63.8,72.8,67.1,62.7,98,90,75,29.89,29.79,14,6,37,0.27
2013-8-3,74.0,71.4,68.5,70.1,67.4,64.7,94,87,74,29.88,29.78,12,8,37,0.04
2013-8-4,76.6,69.7,62.6,67.1,62.1,58.8,92,78,57,29.83,29.75,12,4,37,0.00
2013-8-5,73.8,66.5,62.3,60.3,56.3,50.4,90,71,45,30.01,29.83,11,6,37,0.00
2013-8-6,73.6,66.7,58.4,60.0,55.8,49.8,89,70,45,30.15,30.00,7,3,37,0.00
2013-8-7,75.0,67.0,59.5,61.6,57.6,49.6,94,74,41,30.18,30.13,9,4,37,0.00
2013-8-8,76.5,70.0,63.5,71.2,66.7,60.5,96,90,79,30.14,30.04,12,6,37,0.00
2013-8-9,73.9,71.4,66.2,73.1,70.4,65.3,99,97,89,30.06,29.78,21,12,37,0.13
2013-8-10,82.0,74.2,66.7,72.6,67.6,59.5,99,81,48,29.96,29.77,12,6,37,0.00
2013-8-11,75.6,69.6,63.2,62.5,58.0,51.4,87,68,44,30.05,29.96,9,4,37,0.00
2013-8-12,74.7,70.3,64.9,70.5,66.3,61.9,96,87,75,30.02,29.91,10,5,37,0.00
2013-8-13,69.9,67.4,64.6,69.2,66.6,64.2,99,98,94,29.91,29.65,10,3,37,0.23
2013-8-14,74.4,67.9,62.7,66.8,60.0,54.6,99,78,51,29.91,29.64,11,5,37,0.01
2013-8-15,73.9,67.3,59.8,58.5,55.0,45.8,84,66,38,30.11,29.91,9,6,37,0.00
2013-8-16,74.5,68.9,61.3,65.3,60.9,54.1,91,76,51,30.18,30.09,9,5,37,0.00
2013-8-17,77.1,68.6,60.9,65.2,62.6,58.8,97,82,64,30.25,30.17,7,2,37,0.00
2013-8-18,74.2,66.6,61.0,67.5,62.4,58.5,98,87,63,30.26,30.07,7,2,37,0.10
2013-8-19,76.8,68.8,58.8,69.1,64.0,56.9,96,85,64,30.07,29.93,11,4,37,0.00
2013-8-20,79.8,73.2,67.8,69.8,66.5,64.1,91,80,66,30.07,29.95,8,4,37,0.00
2013-8-21,79.8,72.9,65.4,71.1,68.1,63.1,97,86,69,30.12,30.03,9,4,37,0.00
2013-8-22,77.4,72.4,70.2,73.2,70.6,68.3,98,94,87,30.03,29.83,11,8,37,0.00
2013-8-23,73.6,69.4,62.7,70.9,64.3,59.3,98,85,67,30.06,29.79,14,7,37,0.00
2013-8-24,69.5,64.8,57.6,60.0,55.1,48.8,91,72,49,30.30,30.06,12,6,37,0.00
2013-8-25,76.2,67.7,56.9,63.6,58.1,48.0,88,72,47,30.33,30.20,9,5,37,0.00
2013-8-26,74.0,70.6,68.6,68.0,65.1,58.4,93,83,68,30.20,29.88,14,9,37,0.00
2013-8-27,72.4,68.4,64.4,69.3,67.4,63.8,99,97,89,29.88,29.81,9,3,37,0.31
2013-8-28,71.7,66.1,63.6,67.7,65.1,63.0,100,97,87,29.91,29.82,6,3,37,0.01
2013-8-29,67.1,64.1,61.6,65.4,62.6,58.2,99,95,87,30.01,29.90,9,6,37,0.00
2013-8-30,72.2,66.2,59.5,68.2,63.4,57.9,97,91,81,29.99,29.84,11,4,37,0.00
2013-8-31,73.3,70.9,69.3,70.8,69.6,68.1,98,96,91,29.86,29.82,13,9,37,0.00